sensor_id;sensor_type;location;lat;lon;timestamp;P1;durP1;ratioP1;P2;durP2;ratioP2
70322;SDS011;57735;56.264;43.898;2023-06-10T00:01:47;9.02;;;2.20;;
70322;SDS011;57735;56.264;43.898;2023-06-10T00:04:18;3.47;;;1.52;;
70322;SDS011;57735;56.264;43.898;2023-06-10T00:06:49;3.67;;;2.17;;
70322;SDS011;57735;56.264;43.898;2023-06-10T00:09:20;5.43;;;1.95;;
70322;SDS011;57735;56.264;43.898;2023-06-10T00:11:51;5.55;;;1.80;;
70322;SDS011;57735;56.264;43.898;2023-06-10T00:14:22;6.38;;;2.10;;
70322;SDS011;57735;56.264;43.898;2023-06-10T00:16:56;6.68;;;1.85;;
70322;SDS011;57735;56.264;43.898;2023-06-10T00:19:27;4.55;;;1.75;;
70322;SDS011;57735;56.264;43.898;2023-06-10T00:22:00;6.55;;;1.80;;
70322;SDS011;57735;56.264;43.898;2023-06-10T00:24:34;5.20;;;2.17;;
70322;SDS011;57735;56.264;43.898;2023-06-10T00:27:05;3.25;;;1.90;;
70322;SDS011;57735;56.264;43.898;2023-06-10T00:29:39;6.60;;;1.88;;
70322;SDS011;57735;56.264;43.898;2023-06-10T00:32:10;6.60;;;1.88;;
70322;SDS011;57735;56.264;43.898;2023-06-10T00:34:41;3.13;;;1.73;;
70322;SDS011;57735;56.264;43.898;2023-06-10T00:37:12;5.80;;;1.80;;
70322;SDS011;57735;56.264;43.898;2023-06-10T00:39:44;5.55;;;2.00;;
70322;SDS011;57735;56.264;43.898;2023-06-10T00:42:15;5.25;;;1.55;;
70322;SDS011;57735;56.264;43.898;2023-06-10T00:44:46;6.13;;;1.73;;
70322;SDS011;57735;56.264;43.898;2023-06-10T00:47:17;5.15;;;1.77;;
70322;SDS011;57735;56.264;43.898;2023-06-10T00:49:49;4.28;;;1.70;;
70322;SDS011;57735;56.264;43.898;2023-06-10T00:52:21;2.13;;;1.48;;
70322;SDS011;57735;56.264;43.898;2023-06-10T00:54:57;4.07;;;1.67;;
70322;SDS011;57735;56.264;43.898;2023-06-10T00:57:29;18.15;;;2.03;;
70322;SDS011;57735;56.264;43.898;2023-06-10T01:00:00;2.25;;;1.30;;
70322;SDS011;57735;56.264;43.898;2023-06-10T01:02:31;4.20;;;1.30;;
70322;SDS011;57735;56.264;43.898;2023-06-10T01:05:09;7.13;;;1.38;;
70322;SDS011;57735;56.264;43.898;2023-06-10T01:08:01;3.40;;;1.45;;
70322;SDS011;57735;56.264;43.898;2023-06-10T01:10:59;4.18;;;1.70;;
70322;SDS011;57735;56.264;43.898;2023-06-10T01:13:34;3.08;;;1.20;;
70322;SDS011;57735;56.264;43.898;2023-06-10T01:16:09;3.70;;;1.40;;
70322;SDS011;57735;56.264;43.898;2023-06-10T01:18:40;7.60;;;1.40;;
70322;SDS011;57735;56.264;43.898;2023-06-10T01:21:16;7.50;;;1.40;;
70322;SDS011;57735;56.264;43.898;2023-06-10T01:23:58;3.60;;;1.40;;
70322;SDS011;57735;56.264;43.898;2023-06-10T01:26:30;2.40;;;1.40;;
70322;SDS011;57735;56.264;43.898;2023-06-10T01:29:04;2.00;;;1.00;;
70322;SDS011;57735;56.264;43.898;2023-06-10T01:31:51;3.45;;;1.08;;
70322;SDS011;57735;56.264;43.898;2023-06-10T01:34:29;3.75;;;0.98;;
70322;SDS011;57735;56.264;43.898;2023-06-10T01:37:03;1.92;;;1.00;;
70322;SDS011;57735;56.264;43.898;2023-06-10T01:39:34;3.13;;;1.13;;
70322;SDS011;57735;56.264;43.898;2023-06-10T01:42:06;3.42;;;0.90;;
70322;SDS011;57735;56.264;43.898;2023-06-10T01:44:40;2.17;;;1.02;;
70322;SDS011;57735;56.264;43.898;2023-06-10T01:47:12;1.60;;;1.00;;
70322;SDS011;57735;56.264;43.898;2023-06-10T01:49:43;2.45;;;1.23;;
70322;SDS011;57735;56.264;43.898;2023-06-10T01:52:16;2.35;;;1.23;;
70322;SDS011;57735;56.264;43.898;2023-06-10T01:54:47;2.85;;;1.15;;
70322;SDS011;57735;56.264;43.898;2023-06-10T01:57:18;3.13;;;1.35;;
70322;SDS011;57735;56.264;43.898;2023-06-10T01:59:49;1.98;;;0.95;;
70322;SDS011;57735;56.264;43.898;2023-06-10T02:02:20;1.70;;;1.02;;
70322;SDS011;57735;56.264;43.898;2023-06-10T02:04:52;3.10;;;1.20;;
70322;SDS011;57735;56.264;43.898;2023-06-10T02:07:23;6.32;;;1.25;;
70322;SDS011;57735;56.264;43.898;2023-06-10T02:09:54;2.72;;;1.35;;
70322;SDS011;57735;56.264;43.898;2023-06-10T02:12:27;0.95;;;0.75;;
70322;SDS011;57735;56.264;43.898;2023-06-10T02:14:58;2.03;;;1.00;;
70322;SDS011;57735;56.264;43.898;2023-06-10T02:17:29;2.13;;;1.00;;
70322;SDS011;57735;56.264;43.898;2023-06-10T02:20:20;2.13;;;1.10;;
70322;SDS011;57735;56.264;43.898;2023-06-10T02:22:51;2.72;;;1.00;;
70322;SDS011;57735;56.264;43.898;2023-06-10T02:25:22;2.95;;;0.90;;
70322;SDS011;57735;56.264;43.898;2023-06-10T02:27:53;4.32;;;1.08;;
70322;SDS011;57735;56.264;43.898;2023-06-10T02:30:24;3.67;;;0.80;;
70322;SDS011;57735;56.264;43.898;2023-06-10T02:32:57;2.60;;;0.70;;
70322;SDS011;57735;56.264;43.898;2023-06-10T02:35:31;2.97;;;0.70;;
70322;SDS011;57735;56.264;43.898;2023-06-10T02:38:02;6.93;;;2.28;;
70322;SDS011;57735;56.264;43.898;2023-06-10T02:40:33;5.38;;;1.23;;
70322;SDS011;57735;56.264;43.898;2023-06-10T02:43:04;1.85;;;1.08;;
70322;SDS011;57735;56.264;43.898;2023-06-10T02:45:37;4.90;;;0.77;;
70322;SDS011;57735;56.264;43.898;2023-06-10T02:48:08;2.40;;;1.45;;
70322;SDS011;57735;56.264;43.898;2023-06-10T02:50:39;1.50;;;1.00;;
70322;SDS011;57735;56.264;43.898;2023-06-10T02:53:10;1.40;;;0.85;;
70322;SDS011;57735;56.264;43.898;2023-06-10T02:55:41;3.17;;;1.05;;
70322;SDS011;57735;56.264;43.898;2023-06-10T02:58:12;1.80;;;0.80;;
70322;SDS011;57735;56.264;43.898;2023-06-10T03:00:43;3.60;;;0.70;;
70322;SDS011;57735;56.264;43.898;2023-06-10T03:03:15;1.08;;;0.90;;
70322;SDS011;57735;56.264;43.898;2023-06-10T03:05:46;2.97;;;0.90;;
70322;SDS011;57735;56.264;43.898;2023-06-10T03:08:20;1.27;;;0.70;;
70322;SDS011;57735;56.264;43.898;2023-06-10T03:10:53;4.80;;;0.90;;
70322;SDS011;57735;56.264;43.898;2023-06-10T03:13:27;2.95;;;0.88;;
70322;SDS011;57735;56.264;43.898;2023-06-10T03:15:58;2.08;;;0.90;;
70322;SDS011;57735;56.264;43.898;2023-06-10T03:18:29;5.63;;;0.73;;
70322;SDS011;57735;56.264;43.898;2023-06-10T03:20:59;7.45;;;0.90;;
70322;SDS011;57735;56.264;43.898;2023-06-10T03:23:35;1.38;;;0.80;;
70322;SDS011;57735;56.264;43.898;2023-06-10T03:26:06;2.05;;;0.90;;
70322;SDS011;57735;56.264;43.898;2023-06-10T03:28:38;3.67;;;0.80;;
70322;SDS011;57735;56.264;43.898;2023-06-10T03:31:11;1.17;;;0.70;;
70322;SDS011;57735;56.264;43.898;2023-06-10T03:33:42;3.50;;;0.80;;
70322;SDS011;57735;56.264;43.898;2023-06-10T03:36:13;1.83;;;0.90;;
70322;SDS011;57735;56.264;43.898;2023-06-10T03:38:44;4.03;;;0.60;;
70322;SDS011;57735;56.264;43.898;2023-06-10T03:41:17;1.03;;;0.80;;
70322;SDS011;57735;56.264;43.898;2023-06-10T03:43:50;2.63;;;0.80;;
70322;SDS011;57735;56.264;43.898;2023-06-10T03:46:21;1.05;;;0.88;;
70322;SDS011;57735;56.264;43.898;2023-06-10T03:48:55;4.45;;;0.80;;
70322;SDS011;57735;56.264;43.898;2023-06-10T03:51:26;1.90;;;0.95;;
70322;SDS011;57735;56.264;43.898;2023-06-10T03:53:57;2.67;;;0.65;;
70322;SDS011;57735;56.264;43.898;2023-06-10T03:56:31;1.00;;;0.70;;
70322;SDS011;57735;56.264;43.898;2023-06-10T03:59:05;0.93;;;0.82;;
70322;SDS011;57735;56.264;43.898;2023-06-10T04:01:36;1.83;;;0.60;;
70322;SDS011;57735;56.264;43.898;2023-06-10T04:04:08;1.10;;;0.80;;
70322;SDS011;57735;56.264;43.898;2023-06-10T04:06:39;3.83;;;0.80;;
70322;SDS011;57735;56.264;43.898;2023-06-10T04:09:11;1.17;;;0.70;;
70322;SDS011;57735;56.264;43.898;2023-06-10T04:11:45;6.00;;;0.98;;
70322;SDS011;57735;56.264;43.898;2023-06-10T04:14:16;5.97;;;0.73;;
70322;SDS011;57735;56.264;43.898;2023-06-10T04:16:47;4.60;;;0.70;;
70322;SDS011;57735;56.264;43.898;2023-06-10T04:19:18;2.00;;;0.70;;
70322;SDS011;57735;56.264;43.898;2023-06-10T04:21:50;2.13;;;1.00;;
70322;SDS011;57735;56.264;43.898;2023-06-10T04:24:21;1.42;;;1.05;;
70322;SDS011;57735;56.264;43.898;2023-06-10T04:26:51;1.95;;;0.90;;
70322;SDS011;57735;56.264;43.898;2023-06-10T04:29:22;3.03;;;1.02;;
70322;SDS011;57735;56.264;43.898;2023-06-10T04:31:54;1.52;;;0.90;;
70322;SDS011;57735;56.264;43.898;2023-06-10T04:34:25;1.85;;;0.80;;
70322;SDS011;57735;56.264;43.898;2023-06-10T04:36:55;8.15;;;0.88;;
70322;SDS011;57735;56.264;43.898;2023-06-10T04:39:27;1.50;;;0.68;;
70322;SDS011;57735;56.264;43.898;2023-06-10T04:41:57;2.45;;;0.63;;
70322;SDS011;57735;56.264;43.898;2023-06-10T04:44:29;1.38;;;0.77;;
70322;SDS011;57735;56.264;43.898;2023-06-10T04:47:00;1.45;;;0.65;;
70322;SDS011;57735;56.264;43.898;2023-06-10T04:49:31;8.00;;;0.80;;
70322;SDS011;57735;56.264;43.898;2023-06-10T04:52:02;1.10;;;0.77;;
70322;SDS011;57735;56.264;43.898;2023-06-10T04:54:35;0.65;;;0.50;;
70322;SDS011;57735;56.264;43.898;2023-06-10T04:57:06;2.60;;;0.95;;
70322;SDS011;57735;56.264;43.898;2023-06-10T04:59:38;1.63;;;0.65;;
70322;SDS011;57735;56.264;43.898;2023-06-10T05:02:14;2.03;;;0.73;;
70322;SDS011;57735;56.264;43.898;2023-06-10T05:04:44;0.55;;;0.50;;
70322;SDS011;57735;56.264;43.898;2023-06-10T05:07:15;1.45;;;0.60;;
70322;SDS011;57735;56.264;43.898;2023-06-10T05:09:46;0.77;;;0.60;;
70322;SDS011;57735;56.264;43.898;2023-06-10T05:12:17;1.75;;;0.70;;
70322;SDS011;57735;56.264;43.898;2023-06-10T05:14:48;0.70;;;0.60;;
70322;SDS011;57735;56.264;43.898;2023-06-10T05:17:19;1.08;;;0.50;;
70322;SDS011;57735;56.264;43.898;2023-06-10T05:19:51;0.88;;;0.60;;
70322;SDS011;57735;56.264;43.898;2023-06-10T05:22:23;2.13;;;0.70;;
70322;SDS011;57735;56.264;43.898;2023-06-10T05:24:55;1.60;;;0.60;;
70322;SDS011;57735;56.264;43.898;2023-06-10T05:27:25;3.15;;;0.50;;
70322;SDS011;57735;56.264;43.898;2023-06-10T05:29:59;2.13;;;0.68;;
70322;SDS011;57735;56.264;43.898;2023-06-10T05:32:30;0.52;;;0.40;;
70322;SDS011;57735;56.264;43.898;2023-06-10T05:35:03;1.33;;;0.73;;
70322;SDS011;57735;56.264;43.898;2023-06-10T05:37:41;4.88;;;0.82;;
70322;SDS011;57735;56.264;43.898;2023-06-10T05:40:13;3.83;;;0.80;;
70322;SDS011;57735;56.264;43.898;2023-06-10T05:42:44;1.00;;;0.55;;
70322;SDS011;57735;56.264;43.898;2023-06-10T05:45:14;4.18;;;0.70;;
70322;SDS011;57735;56.264;43.898;2023-06-10T05:47:48;5.10;;;0.60;;
70322;SDS011;57735;56.264;43.898;2023-06-10T05:50:21;1.60;;;0.73;;
70322;SDS011;57735;56.264;43.898;2023-06-10T05:52:52;0.70;;;0.60;;
70322;SDS011;57735;56.264;43.898;2023-06-10T05:55:24;1.25;;;0.68;;
70322;SDS011;57735;56.264;43.898;2023-06-10T05:57:58;2.17;;;0.63;;
70322;SDS011;57735;56.264;43.898;2023-06-10T06:00:30;2.00;;;0.60;;
70322;SDS011;57735;56.264;43.898;2023-06-10T06:03:06;0.60;;;0.60;;
70322;SDS011;57735;56.264;43.898;2023-06-10T06:05:41;0.73;;;0.50;;
70322;SDS011;57735;56.264;43.898;2023-06-10T06:08:14;1.70;;;0.63;;
70322;SDS011;57735;56.264;43.898;2023-06-10T06:10:47;1.00;;;0.70;;
70322;SDS011;57735;56.264;43.898;2023-06-10T06:13:18;6.57;;;1.08;;
70322;SDS011;57735;56.264;43.898;2023-06-10T06:15:49;3.65;;;0.65;;
70322;SDS011;57735;56.264;43.898;2023-06-10T06:18:23;6.30;;;0.80;;
70322;SDS011;57735;56.264;43.898;2023-06-10T06:20:56;1.98;;;0.60;;
70322;SDS011;57735;56.264;43.898;2023-06-10T06:23:27;1.88;;;1.27;;
70322;SDS011;57735;56.264;43.898;2023-06-10T06:25:58;1.85;;;0.93;;
70322;SDS011;57735;56.264;43.898;2023-06-10T06:28:28;1.33;;;0.68;;
70322;SDS011;57735;56.264;43.898;2023-06-10T06:31:00;1.13;;;0.98;;
70322;SDS011;57735;56.264;43.898;2023-06-10T06:33:31;3.15;;;0.60;;
70322;SDS011;57735;56.264;43.898;2023-06-10T06:36:02;1.17;;;0.68;;
70322;SDS011;57735;56.264;43.898;2023-06-10T06:38:33;3.47;;;0.68;;
70322;SDS011;57735;56.264;43.898;2023-06-10T06:41:06;0.60;;;0.60;;
70322;SDS011;57735;56.264;43.898;2023-06-10T06:43:37;1.45;;;0.73;;
70322;SDS011;57735;56.264;43.898;2023-06-10T06:46:08;1.25;;;0.55;;
70322;SDS011;57735;56.264;43.898;2023-06-10T06:48:39;2.97;;;0.70;;
70322;SDS011;57735;56.264;43.898;2023-06-10T06:51:10;4.15;;;1.15;;
70322;SDS011;57735;56.264;43.898;2023-06-10T06:53:40;1.50;;;0.93;;
70322;SDS011;57735;56.264;43.898;2023-06-10T06:56:18;1.20;;;0.68;;
70322;SDS011;57735;56.264;43.898;2023-06-10T06:58:51;3.53;;;1.67;;
70322;SDS011;57735;56.264;43.898;2023-06-10T07:01:22;1.88;;;0.70;;
70322;SDS011;57735;56.264;43.898;2023-06-10T07:03:53;2.75;;;0.80;;
70322;SDS011;57735;56.264;43.898;2023-06-10T07:06:24;2.63;;;0.70;;
70322;SDS011;57735;56.264;43.898;2023-06-10T07:08:56;2.58;;;0.90;;
70322;SDS011;57735;56.264;43.898;2023-06-10T07:11:29;0.80;;;0.70;;
70322;SDS011;57735;56.264;43.898;2023-06-10T07:14:00;4.53;;;1.20;;
70322;SDS011;57735;56.264;43.898;2023-06-10T07:16:31;5.18;;;0.70;;
70322;SDS011;57735;56.264;43.898;2023-06-10T07:19:02;0.70;;;0.70;;
70322;SDS011;57735;56.264;43.898;2023-06-10T07:21:33;4.20;;;0.80;;
70322;SDS011;57735;56.264;43.898;2023-06-10T07:24:04;1.48;;;0.63;;
70322;SDS011;57735;56.264;43.898;2023-06-10T07:26:38;3.55;;;0.95;;
70322;SDS011;57735;56.264;43.898;2023-06-10T07:29:11;2.63;;;0.90;;
70322;SDS011;57735;56.264;43.898;2023-06-10T07:31:44;3.15;;;0.73;;
70322;SDS011;57735;56.264;43.898;2023-06-10T07:34:15;2.33;;;0.85;;
70322;SDS011;57735;56.264;43.898;2023-06-10T07:36:46;2.60;;;0.95;;
70322;SDS011;57735;56.264;43.898;2023-06-10T07:39:16;5.43;;;1.30;;
70322;SDS011;57735;56.264;43.898;2023-06-10T07:41:47;8.60;;;0.82;;
70322;SDS011;57735;56.264;43.898;2023-06-10T07:44:20;3.83;;;0.82;;
70322;SDS011;57735;56.264;43.898;2023-06-10T07:46:51;1.95;;;0.55;;
70322;SDS011;57735;56.264;43.898;2023-06-10T07:49:24;3.60;;;1.13;;
70322;SDS011;57735;56.264;43.898;2023-06-10T07:51:55;3.50;;;0.50;;
70322;SDS011;57735;56.264;43.898;2023-06-10T07:54:26;5.00;;;1.20;;
70322;SDS011;57735;56.264;43.898;2023-06-10T07:56:57;1.25;;;0.60;;
70322;SDS011;57735;56.264;43.898;2023-06-10T07:59:27;5.85;;;1.15;;
70322;SDS011;57735;56.264;43.898;2023-06-10T08:01:58;0.55;;;0.55;;
70322;SDS011;57735;56.264;43.898;2023-06-10T08:04:29;2.83;;;0.80;;
70322;SDS011;57735;56.264;43.898;2023-06-10T08:07:01;2.67;;;0.88;;
70322;SDS011;57735;56.264;43.898;2023-06-10T08:09:33;1.55;;;0.93;;
70322;SDS011;57735;56.264;43.898;2023-06-10T08:12:03;2.58;;;0.77;;
70322;SDS011;57735;56.264;43.898;2023-06-10T08:14:35;3.47;;;0.90;;
70322;SDS011;57735;56.264;43.898;2023-06-10T08:17:07;2.38;;;0.80;;
70322;SDS011;57735;56.264;43.898;2023-06-10T08:19:38;1.55;;;0.60;;
70322;SDS011;57735;56.264;43.898;2023-06-10T08:22:11;4.25;;;0.77;;
70322;SDS011;57735;56.264;43.898;2023-06-10T08:24:42;0.55;;;0.50;;
70322;SDS011;57735;56.264;43.898;2023-06-10T08:27:13;2.65;;;0.93;;
70322;SDS011;57735;56.264;43.898;2023-06-10T08:29:43;3.35;;;0.80;;
70322;SDS011;57735;56.264;43.898;2023-06-10T08:32:14;3.67;;;1.30;;
70322;SDS011;57735;56.264;43.898;2023-06-10T08:34:45;2.00;;;0.98;;
70322;SDS011;57735;56.264;43.898;2023-06-10T08:37:22;1.15;;;0.60;;
70322;SDS011;57735;56.264;43.898;2023-06-10T08:39:53;2.63;;;1.00;;
70322;SDS011;57735;56.264;43.898;2023-06-10T08:42:34;4.40;;;0.82;;
70322;SDS011;57735;56.264;43.898;2023-06-10T08:45:13;1.38;;;0.95;;
70322;SDS011;57735;56.264;43.898;2023-06-10T08:47:50;2.70;;;1.00;;
70322;SDS011;57735;56.264;43.898;2023-06-10T08:50:24;2.78;;;0.70;;
70322;SDS011;57735;56.264;43.898;2023-06-10T08:52:57;2.38;;;0.60;;
70322;SDS011;57735;56.264;43.898;2023-06-10T08:55:32;3.33;;;0.70;;
70322;SDS011;57735;56.264;43.898;2023-06-10T08:58:06;3.47;;;0.70;;
70322;SDS011;57735;56.264;43.898;2023-06-10T09:00:39;0.90;;;0.80;;
70322;SDS011;57735;56.264;43.898;2023-06-10T09:03:10;4.47;;;0.85;;
70322;SDS011;57735;56.264;43.898;2023-06-10T09:05:42;10.60;;;0.70;;
70322;SDS011;57735;56.264;43.898;2023-06-10T09:08:13;3.58;;;0.60;;
70322;SDS011;57735;56.264;43.898;2023-06-10T09:10:45;1.67;;;0.80;;
70322;SDS011;57735;56.264;43.898;2023-06-10T09:13:17;2.85;;;1.05;;
70322;SDS011;57735;56.264;43.898;2023-06-10T09:15:49;5.20;;;1.47;;
70322;SDS011;57735;56.264;43.898;2023-06-10T09:18:21;1.40;;;0.68;;
70322;SDS011;57735;56.264;43.898;2023-06-10T09:20:53;2.40;;;0.63;;
70322;SDS011;57735;56.264;43.898;2023-06-10T09:23:24;3.42;;;0.60;;
70322;SDS011;57735;56.264;43.898;2023-06-10T09:25:58;1.05;;;0.80;;
70322;SDS011;57735;56.264;43.898;2023-06-10T09:28:29;4.38;;;0.93;;
70322;SDS011;57735;56.264;43.898;2023-06-10T09:31:06;2.47;;;0.80;;
70322;SDS011;57735;56.264;43.898;2023-06-10T09:33:42;3.38;;;0.80;;
70322;SDS011;57735;56.264;43.898;2023-06-10T09:36:21;3.10;;;0.85;;
70322;SDS011;57735;56.264;43.898;2023-06-10T09:38:56;3.75;;;1.17;;
70322;SDS011;57735;56.264;43.898;2023-06-10T09:41:40;2.07;;;1.00;;
70322;SDS011;57735;56.264;43.898;2023-06-10T09:44:13;3.33;;;1.02;;
70322;SDS011;57735;56.264;43.898;2023-06-10T09:46:50;1.63;;;0.90;;
70322;SDS011;57735;56.264;43.898;2023-06-10T09:49:21;0.98;;;0.73;;
70322;SDS011;57735;56.264;43.898;2023-06-10T09:51:52;1.17;;;0.60;;
70322;SDS011;57735;56.264;43.898;2023-06-10T09:54:24;1.85;;;0.80;;
70322;SDS011;57735;56.264;43.898;2023-06-10T09:57:06;7.57;;;1.70;;
70322;SDS011;57735;56.264;43.898;2023-06-10T09:59:40;1.30;;;0.70;;
70322;SDS011;57735;56.264;43.898;2023-06-10T10:02:15;6.40;;;1.00;;
70322;SDS011;57735;56.264;43.898;2023-06-10T10:04:47;6.82;;;0.93;;
70322;SDS011;57735;56.264;43.898;2023-06-10T10:07:18;3.58;;;0.90;;
70322;SDS011;57735;56.264;43.898;2023-06-10T10:09:49;3.35;;;0.90;;
70322;SDS011;57735;56.264;43.898;2023-06-10T10:12:20;1.95;;;0.80;;
70322;SDS011;57735;56.264;43.898;2023-06-10T10:14:51;3.13;;;1.00;;
70322;SDS011;57735;56.264;43.898;2023-06-10T10:17:25;1.25;;;0.80;;
70322;SDS011;57735;56.264;43.898;2023-06-10T10:20:02;4.22;;;0.75;;
70322;SDS011;57735;56.264;43.898;2023-06-10T10:22:39;3.08;;;0.85;;
70322;SDS011;57735;56.264;43.898;2023-06-10T10:25:15;3.13;;;1.00;;
70322;SDS011;57735;56.264;43.898;2023-06-10T10:27:55;3.20;;;0.80;;
70322;SDS011;57735;56.264;43.898;2023-06-10T10:30:30;1.95;;;0.93;;
70322;SDS011;57735;56.264;43.898;2023-06-10T10:33:22;2.33;;;0.60;;
70322;SDS011;57735;56.264;43.898;2023-06-10T10:36:01;3.67;;;1.05;;
70322;SDS011;57735;56.264;43.898;2023-06-10T10:38:32;7.70;;;0.98;;
70322;SDS011;57735;56.264;43.898;2023-06-10T10:41:05;2.15;;;0.60;;
70322;SDS011;57735;56.264;43.898;2023-06-10T10:43:37;3.08;;;0.85;;
70322;SDS011;57735;56.264;43.898;2023-06-10T10:46:11;2.97;;;1.08;;
70322;SDS011;57735;56.264;43.898;2023-06-10T10:48:43;3.67;;;1.40;;
70322;SDS011;57735;56.264;43.898;2023-06-10T10:51:15;6.28;;;0.93;;
70322;SDS011;57735;56.264;43.898;2023-06-10T10:54:09;4.43;;;1.08;;
70322;SDS011;57735;56.264;43.898;2023-06-10T10:57:09;1.65;;;1.00;;
70322;SDS011;57735;56.264;43.898;2023-06-10T11:02:19;7.88;;;0.98;;
70322;SDS011;57735;56.264;43.898;2023-06-10T11:05:06;4.32;;;0.70;;
70322;SDS011;57735;56.264;43.898;2023-06-10T11:07:37;3.53;;;0.80;;
70322;SDS011;57735;56.264;43.898;2023-06-10T11:10:09;6.43;;;1.20;;
70322;SDS011;57735;56.264;43.898;2023-06-10T11:15:29;4.00;;;1.13;;
70322;SDS011;57735;56.264;43.898;2023-06-10T11:23:25;3.97;;;1.05;;
70322;SDS011;57735;56.264;43.898;2023-06-10T11:31:20;5.90;;;0.73;;
70322;SDS011;57735;56.264;43.898;2023-06-10T11:33:55;2.42;;;0.70;;
70322;SDS011;57735;56.264;43.898;2023-06-10T11:36:28;6.23;;;1.90;;
70322;SDS011;57735;56.264;43.898;2023-06-10T11:39:00;4.82;;;0.90;;
70322;SDS011;57735;56.264;43.898;2023-06-10T11:41:34;5.50;;;2.83;;
70322;SDS011;57735;56.264;43.898;2023-06-10T11:44:09;2.53;;;0.95;;
70322;SDS011;57735;56.264;43.898;2023-06-10T11:46:41;2.13;;;0.73;;
70322;SDS011;57735;56.264;43.898;2023-06-10T11:49:13;2.67;;;0.70;;
70322;SDS011;57735;56.264;43.898;2023-06-10T11:51:44;3.60;;;1.00;;
70322;SDS011;57735;56.264;43.898;2023-06-10T11:54:19;4.32;;;0.98;;
70322;SDS011;57735;56.264;43.898;2023-06-10T11:56:56;7.25;;;1.20;;
70322;SDS011;57735;56.264;43.898;2023-06-10T11:59:29;1.50;;;0.70;;
70322;SDS011;57735;56.264;43.898;2023-06-10T12:02:00;1.98;;;0.80;;
70322;SDS011;57735;56.264;43.898;2023-06-10T12:04:32;3.80;;;1.10;;
70322;SDS011;57735;56.264;43.898;2023-06-10T12:07:03;1.48;;;0.60;;
70322;SDS011;57735;56.264;43.898;2023-06-10T12:09:36;6.13;;;1.00;;
70322;SDS011;57735;56.264;43.898;2023-06-10T12:12:07;1.33;;;0.80;;
70322;SDS011;57735;56.264;43.898;2023-06-10T12:14:55;7.18;;;1.52;;
70322;SDS011;57735;56.264;43.898;2023-06-10T12:20:05;1.52;;;1.00;;
70322;SDS011;57735;56.264;43.898;2023-06-10T12:22:38;1.70;;;0.88;;
70322;SDS011;57735;56.264;43.898;2023-06-10T12:25:11;2.25;;;0.80;;
70322;SDS011;57735;56.264;43.898;2023-06-10T12:27:52;4.45;;;0.90;;
70322;SDS011;57735;56.264;43.898;2023-06-10T12:30:24;2.05;;;0.98;;
70322;SDS011;57735;56.264;43.898;2023-06-10T12:32:56;2.58;;;0.90;;
70322;SDS011;57735;56.264;43.898;2023-06-10T12:35:28;3.70;;;0.90;;
70322;SDS011;57735;56.264;43.898;2023-06-10T12:38:04;2.05;;;0.80;;
70322;SDS011;57735;56.264;43.898;2023-06-10T12:40:39;3.55;;;1.70;;
70322;SDS011;57735;56.264;43.898;2023-06-10T12:43:10;4.22;;;1.23;;
70322;SDS011;57735;56.264;43.898;2023-06-10T12:45:42;5.80;;;1.17;;
70322;SDS011;57735;56.264;43.898;2023-06-10T12:48:22;5.07;;;1.33;;
70322;SDS011;57735;56.264;43.898;2023-06-10T12:50:55;8.75;;;1.92;;
70322;SDS011;57735;56.264;43.898;2023-06-10T12:53:27;3.03;;;1.23;;
70322;SDS011;57735;56.264;43.898;2023-06-10T12:55:57;6.68;;;1.35;;
70322;SDS011;57735;56.264;43.898;2023-06-10T12:58:29;2.70;;;1.05;;
70322;SDS011;57735;56.264;43.898;2023-06-10T13:01:00;4.88;;;1.33;;
70322;SDS011;57735;56.264;43.898;2023-06-10T13:03:31;1.40;;;0.75;;
70322;SDS011;57735;56.264;43.898;2023-06-10T13:06:02;2.35;;;0.90;;
70322;SDS011;57735;56.264;43.898;2023-06-10T13:08:32;1.35;;;1.20;;
70322;SDS011;57735;56.264;43.898;2023-06-10T13:11:03;4.93;;;1.17;;
70322;SDS011;57735;56.264;43.898;2023-06-10T13:13:37;7.50;;;1.80;;
70322;SDS011;57735;56.264;43.898;2023-06-10T13:16:08;7.10;;;1.70;;
70322;SDS011;57735;56.264;43.898;2023-06-10T13:18:42;7.78;;;2.03;;
70322;SDS011;57735;56.264;43.898;2023-06-10T13:21:13;3.03;;;1.52;;
70322;SDS011;57735;56.264;43.898;2023-06-10T13:23:44;4.30;;;1.35;;
70322;SDS011;57735;56.264;43.898;2023-06-10T13:26:17;3.75;;;1.33;;
70322;SDS011;57735;56.264;43.898;2023-06-10T13:28:51;10.82;;;1.60;;
70322;SDS011;57735;56.264;43.898;2023-06-10T13:31:22;2.45;;;1.30;;
70322;SDS011;57735;56.264;43.898;2023-06-10T13:33:53;3.17;;;1.45;;
70322;SDS011;57735;56.264;43.898;2023-06-10T13:36:26;4.38;;;1.98;;
70322;SDS011;57735;56.264;43.898;2023-06-10T13:38:57;4.97;;;1.67;;
70322;SDS011;57735;56.264;43.898;2023-06-10T13:41:28;3.53;;;1.70;;
70322;SDS011;57735;56.264;43.898;2023-06-10T13:43:59;6.10;;;1.65;;
70322;SDS011;57735;56.264;43.898;2023-06-10T13:46:40;3.67;;;1.02;;
70322;SDS011;57735;56.264;43.898;2023-06-10T13:49:11;4.82;;;1.60;;
70322;SDS011;57735;56.264;43.898;2023-06-10T13:51:42;2.47;;;1.55;;
70322;SDS011;57735;56.264;43.898;2023-06-10T13:54:13;2.20;;;1.65;;
70322;SDS011;57735;56.264;43.898;2023-06-10T13:56:47;3.57;;;1.30;;
70322;SDS011;57735;56.264;43.898;2023-06-10T13:59:18;3.28;;;1.80;;
70322;SDS011;57735;56.264;43.898;2023-06-10T14:01:50;3.90;;;1.40;;
70322;SDS011;57735;56.264;43.898;2023-06-10T14:04:23;2.47;;;1.20;;
70322;SDS011;57735;56.264;43.898;2023-06-10T14:06:54;2.38;;;1.42;;
70322;SDS011;57735;56.264;43.898;2023-06-10T14:09:25;3.53;;;1.20;;
70322;SDS011;57735;56.264;43.898;2023-06-10T14:11:56;3.78;;;1.10;;
70322;SDS011;57735;56.264;43.898;2023-06-10T14:14:33;4.85;;;1.42;;
70322;SDS011;57735;56.264;43.898;2023-06-10T14:17:06;3.08;;;1.65;;
70322;SDS011;57735;56.264;43.898;2023-06-10T14:19:37;4.80;;;2.15;;
70322;SDS011;57735;56.264;43.898;2023-06-10T14:22:10;3.58;;;1.63;;
70322;SDS011;57735;56.264;43.898;2023-06-10T14:24:41;9.57;;;2.10;;
70322;SDS011;57735;56.264;43.898;2023-06-10T14:27:12;4.43;;;1.80;;
70322;SDS011;57735;56.264;43.898;2023-06-10T14:29:42;4.88;;;1.70;;
70322;SDS011;57735;56.264;43.898;2023-06-10T14:32:13;4.13;;;1.27;;
70322;SDS011;57735;56.264;43.898;2023-06-10T14:34:47;2.47;;;1.13;;
70322;SDS011;57735;56.264;43.898;2023-06-10T14:37:20;7.68;;;1.30;;
70322;SDS011;57735;56.264;43.898;2023-06-10T14:39:51;6.50;;;0.98;;
70322;SDS011;57735;56.264;43.898;2023-06-10T14:42:22;3.95;;;1.00;;
70322;SDS011;57735;56.264;43.898;2023-06-10T14:44:53;3.08;;;1.05;;
70322;SDS011;57735;56.264;43.898;2023-06-10T14:47:24;2.13;;;1.20;;
70322;SDS011;57735;56.264;43.898;2023-06-10T14:49:58;6.63;;;1.38;;
70322;SDS011;57735;56.264;43.898;2023-06-10T14:52:31;4.25;;;1.30;;
70322;SDS011;57735;56.264;43.898;2023-06-10T14:55:01;7.20;;;1.77;;
70322;SDS011;57735;56.264;43.898;2023-06-10T14:57:34;2.25;;;1.35;;
70322;SDS011;57735;56.264;43.898;2023-06-10T15:00:05;4.85;;;1.05;;
70322;SDS011;57735;56.264;43.898;2023-06-10T15:05:09;5.32;;;1.50;;
70322;SDS011;57735;56.264;43.898;2023-06-10T15:07:41;4.55;;;1.30;;
70322;SDS011;57735;56.264;43.898;2023-06-10T15:10:12;7.15;;;1.55;;
70322;SDS011;57735;56.264;43.898;2023-06-10T15:12:48;4.22;;;0.98;;
70322;SDS011;57735;56.264;43.898;2023-06-10T15:15:26;3.08;;;0.93;;
70322;SDS011;57735;56.264;43.898;2023-06-10T15:17:57;2.78;;;0.90;;
70322;SDS011;57735;56.264;43.898;2023-06-10T15:20:28;3.03;;;1.70;;
70322;SDS011;57735;56.264;43.898;2023-06-10T15:22:59;6.00;;;1.45;;
70322;SDS011;57735;56.264;43.898;2023-06-10T15:25:30;3.25;;;1.17;;
70322;SDS011;57735;56.264;43.898;2023-06-10T15:28:01;5.68;;;1.30;;